createdAt,value
2023-02-05T00:00:50.824Z,7.80
2023-02-05T00:03:18.597Z,12.60
2023-02-05T00:05:46.924Z,7.00
2023-02-05T00:08:14.650Z,12.20
2023-02-05T00:10:42.971Z,9.20
2023-02-05T00:13:10.731Z,12.40
2023-02-05T00:15:38.410Z,13.40
2023-02-05T00:18:07.832Z,15.20
2023-02-05T00:20:36.459Z,15.20
2023-02-05T00:23:04.153Z,9.80
2023-02-05T00:25:32.074Z,19.00
2023-02-05T00:28:00.157Z,9.80
2023-02-05T00:30:28.656Z,12.00
2023-02-05T00:32:56.697Z,11.20
2023-02-05T00:35:24.823Z,12.00
2023-02-05T00:37:52.518Z,9.00
2023-02-05T00:40:20.684Z,7.80
2023-02-05T00:42:48.574Z,12.00
2023-02-05T00:45:16.318Z,12.40
2023-02-05T00:47:44.183Z,10.00
2023-02-05T00:50:11.899Z,10.40
2023-02-05T00:52:39.570Z,12.20
2023-02-05T00:55:07.387Z,11.20
2023-02-05T00:57:35.174Z,8.60
2023-02-05T01:00:03.194Z,10.00
2023-02-05T01:02:31.113Z,15.40
2023-02-05T01:04:58.825Z,8.80
2023-02-05T01:07:26.645Z,11.60
2023-02-05T01:09:54.259Z,15.80
2023-02-05T01:12:21.904Z,11.80
2023-02-05T01:14:49.611Z,15.20
2023-02-05T01:17:17.186Z,12.40
2023-02-05T01:19:44.844Z,21.00
2023-02-05T01:22:12.523Z,15.00
2023-02-05T01:24:40.479Z,10.60
2023-02-05T01:27:08.162Z,12.40
2023-02-05T01:29:35.768Z,12.00
2023-02-05T01:32:03.613Z,17.20
2023-02-05T01:34:31.310Z,18.40
2023-02-05T01:36:59.338Z,13.00
2023-02-05T01:39:27.117Z,19.80
2023-02-05T01:41:54.759Z,19.40
2023-02-05T01:44:24.709Z,16.20
2023-02-05T01:46:52.768Z,12.40
2023-02-05T01:49:20.740Z,9.20
2023-02-05T01:51:48.353Z,9.00
2023-02-05T01:54:15.957Z,9.00
2023-02-05T01:56:43.675Z,10.80
2023-02-05T01:59:11.294Z,15.20
2023-02-05T02:01:39.285Z,11.20
2023-02-05T02:04:07.029Z,13.20
2023-02-05T02:06:34.606Z,14.00
2023-02-05T02:09:04.215Z,13.40
2023-02-05T02:11:31.812Z,8.80
2023-02-05T02:13:59.790Z,13.20
2023-02-05T02:16:27.399Z,13.60
2023-02-05T02:18:54.995Z,13.00
2023-02-05T02:21:22.816Z,10.80
2023-02-05T02:23:50.438Z,13.40
2023-02-05T02:26:18.616Z,12.20
2023-02-05T02:28:46.304Z,15.00
2023-02-05T02:31:14.215Z,9.60
2023-02-05T02:33:42.049Z,14.60
2023-02-05T02:36:09.624Z,10.80
2023-02-05T02:38:37.566Z,12.00
2023-02-05T02:41:05.200Z,1.40
2023-02-05T02:43:32.813Z,13.60
2023-02-05T02:46:00.473Z,12.40
2023-02-05T02:48:28.102Z,14.20
2023-02-05T02:50:56.163Z,6.60
2023-02-05T02:53:23.842Z,13.00
2023-02-05T02:55:51.455Z,15.20
2023-02-05T02:58:19.081Z,14.40
2023-02-05T03:00:46.770Z,10.40
2023-02-05T03:03:14.769Z,10.00
2023-02-05T03:05:42.332Z,12.40
2023-02-05T03:08:10.105Z,15.00
2023-02-05T03:10:38.962Z,10.40
2023-02-05T03:13:06.576Z,9.20
2023-02-05T03:15:35.134Z,12.00
2023-02-05T03:18:02.989Z,14.20
2023-02-05T03:20:30.584Z,7.80
2023-02-05T03:22:58.405Z,12.80
2023-02-05T03:25:26.047Z,10.80
2023-02-05T03:27:54.084Z,17.20
2023-02-05T03:30:21.668Z,10.00
2023-02-05T03:32:49.269Z,10.40
2023-02-05T03:35:16.995Z,12.00
2023-02-05T03:37:44.979Z,8.80
2023-02-05T03:40:12.969Z,8.80
2023-02-05T03:42:40.543Z,12.60
2023-02-05T03:45:08.142Z,10.00
2023-02-05T03:47:35.973Z,10.80
2023-02-05T03:50:03.590Z,15.00
2023-02-05T03:52:31.381Z,14.20
2023-02-05T03:54:59.048Z,13.80
2023-02-05T03:57:26.624Z,15.00
2023-02-05T03:59:55.688Z,10.40
2023-02-05T04:02:23.503Z,13.00
2023-02-05T04:04:51.605Z,11.60
2023-02-05T04:07:19.176Z,14.40
2023-02-05T04:09:46.754Z,9.40
2023-02-05T04:12:14.542Z,8.20
2023-02-05T04:14:42.096Z,8.60
2023-02-05T04:17:10.055Z,12.00
2023-02-05T04:19:37.624Z,17.20
2023-02-05T04:22:05.241Z,15.00
2023-02-05T04:24:32.853Z,8.80
2023-02-05T04:27:00.440Z,14.20
2023-02-05T04:29:28.442Z,8.60
2023-02-05T04:31:56.109Z,11.20
2023-02-05T04:34:23.795Z,9.40
2023-02-05T04:36:51.390Z,9.40
2023-02-05T04:39:19.010Z,9.80
2023-02-05T04:41:47.441Z,6.40
2023-02-05T04:44:15.030Z,9.80
2023-02-05T04:46:42.691Z,7.00
2023-02-05T04:49:10.277Z,9.80
2023-02-05T04:51:37.837Z,7.20
2023-02-05T04:54:05.442Z,9.40
2023-02-05T04:56:33.004Z,10.40
2023-02-05T04:59:00.576Z,8.00
2023-02-05T05:01:28.486Z,11.60
2023-02-05T05:03:56.551Z,13.20
2023-02-05T05:06:24.612Z,11.00
2023-02-05T05:08:52.227Z,13.40
2023-02-05T05:11:19.793Z,13.40
2023-02-05T05:13:48.783Z,9.60
2023-02-05T05:16:16.508Z,12.80
2023-02-05T05:18:44.502Z,10.00
2023-02-05T05:21:12.107Z,8.20
2023-02-05T05:23:39.712Z,11.20
2023-02-05T05:26:08.833Z,9.00
2023-02-05T05:28:36.812Z,14.60
2023-02-05T05:31:04.835Z,9.40
2023-02-05T05:33:32.436Z,13.80
2023-02-05T05:36:00.028Z,12.00
2023-02-05T05:38:27.783Z,16.00
2023-02-05T05:41:13.033Z,12.40
2023-02-05T05:43:49.530Z,15.60
2023-02-05T05:46:21.977Z,13.00
2023-02-05T05:48:49.944Z,10.80
2023-02-05T05:51:17.921Z,13.60
2023-02-05T05:53:45.506Z,18.60
2023-02-05T05:56:13.101Z,18.40
2023-02-05T05:58:40.694Z,15.40
2023-02-05T06:01:08.263Z,11.40
2023-02-05T06:03:36.300Z,16.20
2023-02-05T06:06:04.205Z,15.60
2023-02-05T06:08:32.353Z,13.40
2023-02-05T06:10:59.912Z,13.00
2023-02-05T06:13:27.596Z,12.20
2023-02-05T06:15:55.622Z,10.80
2023-02-05T06:18:23.921Z,12.40
2023-02-05T06:20:51.606Z,12.40
2023-02-05T06:23:19.208Z,14.00
2023-02-05T06:25:47.068Z,17.40
2023-02-05T06:28:15.042Z,16.60
2023-02-05T06:30:42.918Z,14.20
2023-02-05T06:33:11.685Z,15.20
2023-02-05T06:35:39.332Z,15.00
2023-02-05T06:38:07.050Z,12.20
2023-02-05T06:40:35.021Z,15.80
2023-02-05T06:43:03.189Z,19.80
2023-02-05T06:45:30.773Z,18.20
2023-02-05T06:47:59.157Z,15.20
2023-02-05T06:50:27.090Z,13.80
2023-02-05T06:52:54.662Z,11.80
2023-02-05T06:55:22.244Z,17.00
2023-02-05T06:57:49.848Z,12.80
2023-02-05T07:00:17.437Z,13.40
2023-02-05T07:02:45.278Z,15.40
2023-02-05T07:05:13.254Z,12.40
2023-02-05T07:07:40.964Z,14.80
2023-02-05T07:10:08.533Z,15.40
2023-02-05T07:12:36.123Z,13.40
2023-02-05T07:15:05.061Z,14.20
2023-02-05T07:17:33.109Z,13.00
2023-02-05T07:20:00.815Z,18.40
2023-02-05T07:22:28.401Z,15.60
2023-02-05T07:24:55.984Z,19.80
2023-02-05T07:27:23.630Z,18.80
2023-02-05T07:29:51.617Z,18.20
2023-02-05T07:32:19.187Z,18.60
2023-02-05T07:34:46.813Z,21.20
2023-02-05T07:37:14.865Z,8.60
2023-02-05T07:39:42.857Z,21.20
2023-02-05T07:42:10.814Z,16.00
2023-02-05T07:44:38.403Z,20.00
2023-02-05T07:47:05.964Z,12.80
2023-02-05T07:49:33.599Z,19.20
2023-02-05T07:52:01.548Z,13.20
2023-02-05T07:54:29.510Z,18.60
2023-02-05T07:56:57.119Z,14.60
2023-02-05T07:59:25.133Z,14.80
2023-02-05T08:01:52.748Z,15.00
2023-02-05T08:04:20.657Z,16.40
2023-02-05T08:06:48.356Z,13.20
2023-02-05T08:09:16.919Z,17.60
2023-02-05T08:11:44.586Z,18.20
2023-02-05T08:14:12.199Z,13.40
2023-02-05T08:16:39.784Z,15.00
2023-02-05T08:19:07.776Z,16.00
2023-02-05T08:21:35.373Z,11.40
2023-02-05T08:24:02.977Z,18.40
2023-02-05T08:26:30.622Z,18.80
2023-02-05T08:28:58.462Z,15.40
2023-02-05T08:31:26.158Z,12.20
2023-02-05T08:33:55.087Z,14.20
2023-02-05T08:36:22.699Z,12.00
2023-02-05T08:38:50.347Z,12.80
2023-02-05T08:41:20.215Z,15.20
2023-02-05T08:43:48.298Z,11.60
2023-02-05T08:46:15.993Z,11.80
2023-02-05T08:48:43.724Z,9.00
2023-02-05T08:51:11.312Z,19.40
2023-02-05T08:53:39.189Z,9.40
2023-02-05T08:56:07.266Z,13.60
2023-02-05T08:58:34.957Z,10.40
2023-02-05T09:01:02.856Z,3.60
2023-02-05T09:03:31.303Z,7.60
2023-02-05T09:05:59.035Z,9.20
2023-02-05T09:08:27.406Z,11.60
2023-02-05T09:10:55.285Z,9.80
2023-02-05T09:13:22.903Z,10.40
2023-02-05T09:15:50.606Z,9.00
2023-02-05T09:18:18.366Z,9.00
2023-02-05T09:20:46.539Z,10.00
2023-02-05T09:23:14.233Z,8.60
2023-02-05T09:25:42.751Z,10.60
2023-02-05T09:28:10.495Z,7.40
2023-02-05T09:30:38.292Z,10.00
2023-02-05T09:33:06.427Z,6.60
2023-02-05T09:35:34.350Z,9.20
2023-02-05T09:38:03.491Z,6.80
2023-02-05T09:40:31.331Z,6.20
2023-02-05T09:42:59.243Z,3.20
2023-02-05T09:45:28.643Z,6.00
2023-02-05T09:47:56.819Z,3.60
2023-02-05T09:50:29.194Z,3.00
2023-02-05T09:52:56.864Z,7.20
2023-02-05T09:55:24.584Z,3.20
2023-02-05T09:57:52.670Z,0.60
2023-02-05T10:00:20.543Z,2.60
2023-02-05T10:02:50.357Z,1.00
2023-02-05T10:05:18.050Z,1.00
2023-02-05T10:07:45.899Z,0.60
2023-02-05T10:10:16.633Z,3.00
2023-02-05T10:12:44.438Z,0.20
2023-02-05T10:15:12.266Z,1.80
2023-02-05T10:17:40.892Z,3.00
2023-02-05T10:20:09.100Z,2.20
2023-02-05T10:22:37.250Z,2.20
2023-02-05T10:25:05.248Z,4.60
2023-02-05T10:27:33.065Z,3.00
2023-02-05T10:30:00.882Z,3.20
2023-02-05T10:32:30.879Z,3.60
2023-02-05T10:35:00.361Z,6.60
2023-02-05T10:37:28.427Z,3.20
2023-02-05T10:39:56.442Z,1.80
2023-02-05T10:42:24.312Z,4.00
2023-02-05T10:44:52.402Z,1.00
2023-02-05T10:47:20.760Z,1.00
2023-02-05T10:49:48.667Z,1.00
2023-02-05T10:52:16.538Z,1.00
2023-02-05T10:54:44.429Z,1.00
2023-02-05T10:57:12.444Z,3.60
2023-02-05T10:59:40.960Z,2.20
2023-02-05T11:02:09.013Z,1.80
2023-02-05T11:04:38.303Z,3.00
2023-02-05T11:07:06.916Z,1.80
2023-02-05T11:09:34.868Z,1.40
2023-02-05T11:12:03.062Z,0.00
2023-02-05T11:14:31.263Z,1.00
2023-02-05T11:16:59.298Z,1.00
2023-02-05T11:19:27.107Z,0.60
2023-02-05T11:21:55.216Z,0.00
2023-02-05T11:24:23.557Z,0.00
2023-02-05T11:26:51.515Z,0.00
2023-02-05T11:29:19.472Z,0.20
2023-02-05T11:31:47.439Z,0.00
2023-02-05T11:34:15.701Z,0.00
2023-02-05T11:36:44.415Z,0.20
2023-02-05T11:39:12.268Z,0.75
2023-02-05T11:41:49.436Z,0.00
2023-02-05T11:44:17.234Z,1.00
2023-02-05T11:46:45.201Z,0.60
2023-02-05T11:49:13.157Z,1.00
2023-02-05T11:51:41.511Z,4.00
2023-02-05T11:54:09.327Z,1.00
2023-02-05T11:56:37.432Z,1.40
2023-02-05T11:59:05.779Z,1.00
2023-02-05T12:01:34.162Z,3.20
2023-02-05T12:04:02.286Z,3.20
2023-02-05T12:06:30.281Z,3.60
2023-02-05T12:08:58.495Z,3.40
2023-02-05T12:11:26.269Z,3.00
2023-02-05T12:13:54.377Z,3.00
2023-02-05T12:16:22.360Z,6.60
2023-02-05T12:18:50.728Z,6.00
2023-02-05T12:21:19.034Z,5.80
2023-02-05T12:23:47.264Z,1.00
2023-02-05T12:26:15.175Z,3.80
2023-02-05T12:28:43.269Z,5.60
2023-02-05T12:31:11.303Z,4.00
2023-02-05T12:33:39.442Z,3.00
2023-02-05T12:36:07.962Z,1.60
2023-02-05T12:38:35.731Z,2.20
2023-02-05T12:41:04.031Z,1.40
2023-02-05T12:43:31.817Z,4.00
2023-02-05T12:45:59.944Z,6.00
2023-02-05T12:48:28.311Z,3.20
2023-02-05T12:50:56.328Z,1.00
2023-02-05T12:53:24.425Z,1.00
2023-02-05T12:55:52.284Z,3.00
2023-02-05T12:58:20.241Z,1.80
2023-02-05T13:00:48.237Z,0.20
2023-02-05T13:03:16.475Z,0.40
2023-02-05T13:05:44.355Z,0.00
2023-02-05T13:08:12.256Z,1.00
2023-02-05T13:10:40.154Z,1.40
2023-02-05T13:13:08.581Z,1.00
2023-02-05T13:15:36.625Z,0.80
2023-02-05T13:18:04.618Z,1.80
2023-02-05T13:20:46.216Z,0.40
2023-02-05T13:23:32.116Z,3.00
2023-02-05T13:26:17.274Z,0.20
2023-02-05T13:28:45.082Z,3.80
2023-02-05T13:31:13.072Z,1.00
2023-02-05T13:33:41.224Z,2.60
2023-02-05T13:36:09.500Z,4.00
2023-02-05T13:38:37.390Z,5.60
2023-02-05T13:41:05.362Z,7.00
2023-02-05T13:43:33.537Z,6.00
2023-02-05T13:46:01.794Z,4.40
2023-02-05T13:48:29.804Z,3.40
2023-02-05T13:50:57.704Z,4.00
2023-02-05T13:53:25.613Z,4.40
2023-02-05T13:55:53.574Z,3.80
2023-02-05T13:58:22.567Z,1.80
2023-02-05T14:00:50.752Z,7.40
2023-02-05T14:03:18.748Z,6.00
2023-02-05T14:05:49.928Z,2.80
2023-02-05T14:08:17.742Z,3.00
2023-02-05T14:10:48.218Z,4.00
2023-02-05T14:13:17.463Z,2.00
2023-02-05T14:15:45.410Z,5.60
2023-02-05T14:18:13.400Z,4.40
2023-02-05T14:20:41.236Z,5.60
2023-02-05T14:23:09.707Z,7.40
2023-02-05T14:25:38.441Z,5.60
2023-02-05T14:28:06.784Z,1.80
2023-02-05T14:30:37.810Z,6.00
2023-02-05T14:33:05.867Z,6.00
2023-02-05T14:35:34.420Z,6.00
2023-02-05T14:38:02.823Z,10.00
2023-02-05T14:40:30.778Z,8.40
2023-02-05T14:43:09.601Z,1.80
2023-02-05T14:45:38.625Z,6.00
2023-02-05T14:48:06.976Z,6.60
2023-02-05T14:50:35.015Z,4.00
2023-02-05T14:53:02.841Z,5.20
2023-02-05T14:55:32.909Z,7.00
2023-02-05T14:58:04.895Z,5.20
2023-02-05T15:00:33.105Z,7.80
2023-02-05T15:03:00.952Z,3.40
2023-02-05T15:05:28.940Z,4.00
2023-02-05T15:07:56.828Z,6.80
2023-02-05T15:10:25.345Z,3.00
2023-02-05T15:12:54.359Z,4.00
2023-02-05T15:15:22.330Z,4.00
2023-02-05T15:17:50.406Z,3.40
2023-02-05T15:20:18.344Z,4.00
2023-02-05T15:22:46.710Z,6.20
2023-02-05T15:25:14.861Z,3.00
2023-02-05T15:27:42.970Z,4.80
2023-02-05T15:30:10.780Z,7.00
2023-02-05T15:32:38.952Z,6.00
2023-02-05T15:35:18.865Z,4.80
2023-02-05T15:37:46.983Z,0.20
2023-02-05T15:40:14.898Z,3.00
2023-02-05T15:42:42.655Z,7.00
2023-02-05T15:45:10.830Z,3.40
2023-02-05T15:47:38.921Z,4.40
2023-02-05T15:50:06.880Z,1.00
2023-02-05T15:52:34.823Z,4.80
2023-02-05T15:55:02.889Z,6.00
2023-02-05T15:57:30.712Z,5.60
2023-02-05T15:59:58.563Z,3.60
2023-02-05T16:02:26.705Z,1.80
2023-02-05T16:04:55.101Z,1.80
2023-02-05T16:07:23.671Z,6.80
2023-02-05T16:09:53.812Z,3.00
2023-02-05T16:12:21.685Z,3.00
2023-02-05T16:14:50.705Z,6.00
2023-02-05T16:17:18.795Z,6.80
2023-02-05T16:19:46.679Z,3.80
2023-02-05T16:22:15.187Z,3.20
2023-02-05T16:24:43.302Z,1.00
2023-02-05T16:27:11.518Z,3.20
2023-02-05T16:29:47.622Z,4.00
2023-02-05T16:32:16.484Z,5.20
2023-02-05T16:34:44.351Z,3.00
2023-02-05T16:37:12.388Z,6.00
2023-02-05T16:39:40.338Z,3.80
2023-02-05T16:42:08.192Z,4.00
2023-02-05T16:44:36.685Z,4.00
2023-02-05T16:47:04.629Z,3.40
2023-02-05T16:49:33.467Z,6.20
2023-02-05T16:52:01.338Z,6.00
2023-02-05T16:54:29.276Z,6.60
2023-02-05T16:56:58.186Z,4.00
2023-02-05T16:59:26.119Z,3.40
2023-02-05T17:01:54.215Z,4.00
2023-02-05T17:04:26.911Z,3.20
2023-02-05T17:06:54.915Z,4.60
2023-02-05T17:09:23.262Z,3.20
2023-02-05T17:11:51.334Z,6.00
2023-02-05T17:14:19.860Z,6.00
2023-02-05T17:16:47.807Z,4.00
2023-02-05T17:19:16.959Z,4.00
2023-02-05T17:21:45.182Z,8.60
2023-02-05T17:24:15.106Z,0.00
2023-02-05T17:26:43.351Z,5.60
2023-02-05T17:29:11.310Z,3.20
2023-02-05T17:31:39.214Z,0.00
2023-02-05T17:34:07.536Z,3.80
2023-02-05T17:36:35.322Z,1.00
2023-02-05T17:39:03.789Z,1.80
2023-02-05T17:41:49.573Z,1.40
2023-02-05T17:44:18.025Z,3.20
2023-02-05T17:46:46.708Z,1.00
2023-02-05T17:49:15.121Z,3.20
2023-02-05T17:51:43.057Z,4.20
2023-02-05T17:54:10.834Z,0.00
2023-02-05T17:56:39.456Z,3.00
2023-02-05T17:59:07.200Z,4.00
2023-02-05T18:01:35.493Z,1.00
2023-02-05T18:04:03.836Z,3.40
2023-02-05T18:06:31.580Z,1.00
2023-02-05T18:09:00.044Z,0.40
2023-02-05T18:11:27.940Z,1.40
2023-02-05T18:13:56.220Z,1.00
2023-02-05T18:16:24.051Z,1.00
2023-02-05T18:18:52.179Z,0.00
2023-02-05T18:21:22.014Z,1.00
2023-02-05T18:23:50.685Z,1.80
2023-02-05T18:26:20.511Z,0.40
2023-02-05T18:28:48.469Z,0.80
2023-02-05T18:31:16.365Z,2.20
2023-02-05T18:33:44.344Z,0.40
2023-02-05T18:36:12.193Z,0.20
2023-02-05T18:38:40.252Z,1.00
2023-02-05T18:41:08.215Z,0.80
2023-02-05T18:43:36.581Z,2.20
2023-02-05T18:46:04.514Z,0.00
2023-02-05T18:48:32.921Z,0.00
2023-02-05T18:51:00.787Z,3.20
2023-02-05T18:53:29.380Z,0.20
2023-02-05T18:55:57.441Z,3.00
2023-02-05T18:58:25.830Z,1.80
2023-02-05T19:00:53.681Z,1.00
2023-02-05T19:03:21.934Z,1.40
2023-02-05T19:05:49.808Z,1.80
2023-02-05T19:08:17.588Z,0.00
2023-02-05T19:10:46.468Z,3.40
2023-02-05T19:13:14.309Z,4.00
2023-02-05T19:15:42.308Z,2.60
2023-02-05T19:18:10.224Z,3.00
2023-02-05T19:20:38.029Z,3.00
2023-02-05T19:23:06.293Z,6.60
2023-02-05T19:25:34.275Z,4.40
2023-02-05T19:28:02.159Z,3.40
2023-02-05T19:30:29.984Z,4.40
2023-02-05T19:32:58.284Z,3.80
2023-02-05T19:35:26.676Z,1.40
2023-02-05T19:37:54.645Z,1.40
2023-02-05T19:40:22.556Z,3.60
2023-02-05T19:42:50.394Z,6.00
2023-02-05T19:45:18.312Z,2.20
2023-02-05T19:47:46.844Z,3.00
2023-02-05T19:50:14.702Z,1.00
2023-02-05T19:52:43.968Z,3.00
2023-02-05T19:55:12.007Z,3.80
2023-02-05T19:57:40.725Z,1.00
2023-02-05T20:00:08.902Z,4.00
2023-02-05T20:02:36.947Z,3.00
2023-02-05T20:05:05.218Z,1.00
2023-02-05T20:07:34.227Z,3.40
2023-02-05T20:10:02.322Z,4.00
2023-02-05T20:12:30.404Z,1.40
2023-02-05T20:14:58.616Z,3.00
2023-02-05T20:17:26.717Z,1.00
2023-02-05T20:20:02.566Z,0.60
2023-02-05T20:22:37.510Z,3.00
2023-02-05T20:25:05.365Z,1.00
2023-02-05T20:27:33.604Z,3.40
2023-02-05T20:30:21.146Z,1.00
2023-02-05T20:32:49.353Z,0.80
2023-02-05T20:35:17.807Z,1.80
2023-02-05T20:37:45.886Z,3.00
2023-02-05T20:40:13.760Z,1.00
2023-02-05T20:42:41.665Z,2.20
2023-02-05T20:45:10.037Z,0.40
2023-02-05T20:47:37.900Z,0.20
2023-02-05T20:50:06.323Z,2.60
2023-02-05T20:52:34.198Z,3.20
2023-02-05T20:55:02.113Z,1.80
2023-02-05T20:57:30.657Z,1.20
2023-02-05T20:59:58.707Z,0.00
2023-02-05T21:02:26.723Z,0.00
2023-02-05T21:04:54.449Z,0.60
2023-02-05T21:07:27.361Z,0.60
2023-02-05T21:09:55.721Z,0.20
2023-02-05T21:12:28.208Z,2.40
2023-02-05T21:14:56.682Z,1.00
2023-02-05T21:17:24.526Z,0.00
2023-02-05T21:19:52.491Z,2.80
2023-02-05T21:22:20.915Z,0.00
2023-02-05T21:24:48.853Z,1.40
2023-02-05T21:27:17.594Z,0.00
2023-02-05T21:29:46.156Z,1.00
2023-02-05T21:32:14.013Z,1.20
2023-02-05T21:34:42.291Z,1.00
2023-02-05T21:37:10.049Z,0.20
2023-02-05T21:39:41.087Z,1.00
2023-02-05T21:42:08.939Z,0.80
2023-02-05T21:44:36.712Z,2.60
2023-02-05T21:47:04.911Z,2.60
2023-02-05T21:49:32.774Z,1.00
2023-02-05T21:52:00.520Z,1.00
2023-02-05T21:54:28.491Z,1.40
2023-02-05T21:56:56.974Z,1.00
2023-02-05T21:59:25.419Z,3.80
2023-02-05T22:01:53.707Z,0.60
2023-02-05T22:04:21.506Z,1.00
2023-02-05T22:06:49.519Z,3.60
2023-02-05T22:09:17.321Z,1.00
2023-02-05T22:11:45.478Z,1.40
2023-02-05T22:14:13.528Z,1.00
2023-02-05T22:16:41.595Z,1.00
2023-02-05T22:19:09.242Z,0.00
2023-02-05T22:21:37.145Z,3.00
2023-02-05T22:24:05.263Z,0.00
2023-02-05T22:26:33.185Z,3.00
2023-02-05T22:29:01.431Z,1.40
2023-02-05T22:31:29.248Z,1.00
2023-02-05T22:33:57.086Z,0.00
2023-02-05T22:36:25.444Z,0.80
2023-02-05T22:38:53.133Z,0.00
2023-02-05T22:41:20.962Z,0.00
2023-02-05T22:43:48.678Z,0.00
2023-02-05T22:46:16.866Z,0.80
2023-02-05T22:48:44.619Z,0.00
2023-02-05T22:51:12.422Z,3.00
2023-02-05T22:53:40.355Z,0.80
2023-02-05T22:56:08.064Z,0.80
2023-02-05T22:58:35.841Z,0.60
2023-02-05T23:01:03.961Z,0.20
2023-02-05T23:03:31.774Z,0.80
2023-02-05T23:05:59.576Z,1.00
2023-02-05T23:08:27.695Z,1.00
2023-02-05T23:10:55.404Z,0.80
2023-02-05T23:13:23.346Z,0.00
2023-02-05T23:15:51.013Z,1.80
2023-02-05T23:18:19.012Z,4.80
2023-02-05T23:20:46.677Z,0.00
2023-02-05T23:23:14.361Z,1.00
2023-02-05T23:25:43.589Z,0.40
2023-02-05T23:28:11.318Z,0.60
2023-02-05T23:30:40.919Z,0.40
2023-02-05T23:33:08.596Z,0.00
2023-02-05T23:35:36.572Z,0.00
2023-02-05T23:38:04.837Z,0.00
2023-02-05T23:40:32.440Z,2.20
2023-02-05T23:43:00.137Z,0.00
2023-02-05T23:45:27.783Z,1.00
2023-02-05T23:47:55.404Z,0.60
2023-02-05T23:50:23.525Z,1.00
2023-02-05T23:52:51.161Z,0.80
2023-02-05T23:55:18.772Z,1.00
2023-02-05T23:57:46.446Z,2.60
